Big Bear Station Historical Data
Daily Summary for April 1, 2017 Units:  English    Metric   Both
« Previous Day
Next Day »
Daily Weekly Monthly Yearly Custom
  High: Low: Average:
Temperature: 59.9 °F 34.3 °F 44 °F
Dew Point: 32.9 °F 26.3 °F 29.7 °F
Humidity: 78 % 34 % 59 %
Wind Speed: 8.3 mph 0.0 mph 3.3 mph
Wind Gust: -999.0 mph - -
Wind:- - SW
Pressure: 30.16 in 30.01 in -
Precipitation: 0.00 in    
Historical Graphs
 
 
Tabular Data for April 1, 2017
Time Temperature Dew Point Pressure Wind Wind Speed Wind Gust Humidity Rainfall Rate (Hourly)
00:12 37.8 °F 26.3 °F 30.02 in SSE 2.7 mph -999.0 mph 63 % 0 in
00:27 38.3 °F 26.8 °F 30.01 in NW 5.3 mph -999.0 mph 63 % 0 in
00:42 38.7 °F 27.2 °F 30.01 in SW 4.2 mph -999.0 mph 63 % 0 in
00:58 38.7 °F 27.9 °F 30.01 in NNE 4.2 mph -999.0 mph 65 % 0 in
01:13 38.1 °F 27.7 °F 30.02 in South 2.7 mph -999.0 mph 66 % 0 in
01:29 37.8 °F 27.8 °F 30.02 in SSE 2.7 mph -999.0 mph 67 % 0 in
01:44 37.4 °F 27.8 °F 30.02 in WSW 2.7 mph -999.0 mph 68 % 0 in
01:59 37.0 °F 27.8 °F 30.01 in Calm   -999.0 mph 69 % 0 in
02:15 36.7 °F 28.2 °F 30.02 in WSW 3.2 mph -999.0 mph 71 % 0 in
02:30 36.9 °F 28.4 °F 30.02 in Calm   -999.0 mph 71 % 0 in
02:45 36.3 °F 28.1 °F 30.01 in Calm   -999.0 mph 72 % 0 in
03:00 36.1 °F 28.3 °F 30.01 in SE 2.2 mph -999.0 mph 73 % 0 in
03:15 36.3 °F 28.8 °F 30.01 in SW 3.2 mph -999.0 mph 74 % 0 in
03:31 36.5 °F 28.7 °F 30.01 in West 1.7 mph -999.0 mph 73 % 0 in
03:46 36.7 °F 28.9 °F 30.01 in NE 1.1 mph -999.0 mph 73 % 0 in
04:02 37.0 °F 29.2 °F 30.01 in NE 4.7 mph -999.0 mph 73 % 0 in
04:17 37.8 °F 29.9 °F 30.01 in NNW 3.2 mph -999.0 mph 73 % 0 in
04:32 37.9 °F 29.7 °F 30.01 in NW 2.2 mph -999.0 mph 72 % 0 in
04:47 37.4 °F 29.5 °F 30.01 in WSW 1.7 mph -999.0 mph 73 % 0 in
05:03 36.9 °F 28.7 °F 30.01 in NNE 2.7 mph -999.0 mph 72 % 0 in
05:18 36.7 °F 28.5 °F 30.02 in ESE 1.1 mph -999.0 mph 72 % 0 in
05:33 36.1 °F 28.6 °F 30.03 in Calm   -999.0 mph 74 % 0 in
05:48 36.0 °F 28.5 °F 30.03 in SSW 4.7 mph -999.0 mph 74 % 0 in
06:03 35.6 °F 28.1 °F 30.04 in SSW 1.1 mph -999.0 mph 74 % 0 in
06:19 35.6 °F 28.1 °F 30.04 in SSE 6.8 mph -999.0 mph 74 % 0 in
06:34 34.9 °F 28.1 °F 30.04 in South 3.7 mph -999.0 mph 76 % 0 in
06:49 35.1 °F 28.6 °F 30.04 in NW 2.2 mph -999.0 mph 77 % 0 in
07:04 35.8 °F 29.0 °F 30.04 in NW 2.7 mph -999.0 mph 76 % 0 in
07:19 36.5 °F 29.0 °F 30.04 in SSE 3.2 mph -999.0 mph 74 % 0 in
07:35 37.4 °F 29.5 °F 30.05 in ESE 1.7 mph -999.0 mph 73 % 0 in
07:50 37.9 °F 29.7 °F 30.06 in South 2.2 mph -999.0 mph 72 % 0 in
08:05 38.7 °F 30.1 °F 30.06 in South 3.2 mph -999.0 mph 71 % 0 in
08:20 39.6 °F 30.3 °F 30.07 in WNW 7.8 mph -999.0 mph 69 % 0 in
08:35 40.6 °F 30.5 °F 30.07 in Calm   -999.0 mph 67 % 0 in
08:51 41.4 °F 30.9 °F 30.08 in West 6.3 mph -999.0 mph 66 % 0 in
09:06 42.1 °F 30.8 °F 30.08 in SE 3.7 mph -999.0 mph 64 % 0 in
09:21 42.1 °F 30.8 °F 30.09 in NW 6.3 mph -999.0 mph 64 % 0 in
09:52 42.8 °F 30.7 °F 30.09 in NNE 3.7 mph -999.0 mph 62 % 0 in
10:07 43.7 °F 31.5 °F 30.10 in NW 1.7 mph -999.0 mph 62 % 0 in
10:22 44.1 °F 31.1 °F 30.10 in NE 4.7 mph -999.0 mph 60 % 0 in
10:37 45.1 °F 31.2 °F 30.10 in West 3.7 mph -999.0 mph 58 % 0 in
10:52 46.6 °F 30.8 °F 30.10 in NNW 4.7 mph -999.0 mph 54 % 0 in
11:08 48.6 °F 32.7 °F 30.11 in NNW 5.3 mph -999.0 mph 54 % 0 in
11:23 49.5 °F 32.1 °F 30.11 in NNW 4.2 mph -999.0 mph 51 % 0 in
11:38 49.8 °F 32.4 °F 30.11 in NNE 4.2 mph -999.0 mph 51 % 0 in
11:54 50.9 °F 31.4 °F 30.11 in NNW 6.3 mph -999.0 mph 47 % 0 in
12:09 50.5 °F 32.5 °F 30.11 in NNE 5.8 mph -999.0 mph 50 % 0 in
12:25 52.2 °F 32.0 °F 30.11 in NNW 5.8 mph -999.0 mph 46 % 0 in
12:41 53.2 °F 32.4 °F 30.11 in NW 4.7 mph -999.0 mph 45 % 0 in
12:56 53.6 °F 32.2 °F 30.11 in NNW 4.7 mph -999.0 mph 44 % 0 in
13:12 53.6 °F 32.2 °F 30.11 in NNW 8.3 mph -999.0 mph 44 % 0 in
13:27 54.3 °F 32.8 °F 30.11 in NNW 4.7 mph -999.0 mph 44 % 0 in
13:42 55.4 °F 32.7 °F 30.11 in NW 4.7 mph -999.0 mph 42 % 0 in
13:58 56.3 °F 32.9 °F 30.11 in NNW 5.8 mph -999.0 mph 41 % 0 in
14:13 55.2 °F 30.7 °F 30.10 in NW 4.7 mph -999.0 mph 39 % 0 in
14:28 54.9 °F 30.4 °F 30.11 in NE 3.7 mph -999.0 mph 39 % 0 in
14:44 55.8 °F 31.8 °F 30.10 in NNW 5.8 mph -999.0 mph 40 % 0 in
14:59 55.6 °F 30.4 °F 30.10 in NW 5.3 mph -999.0 mph 38 % 0 in
15:14 55.9 °F 29.3 °F 30.10 in WNW 5.3 mph -999.0 mph 36 % 0 in
15:30 56.5 °F 31.8 °F 30.10 in NNW 3.2 mph -999.0 mph 39 % 0 in
15:45 55.9 °F 30.0 °F 30.10 in NNW 7.3 mph -999.0 mph 37 % 0 in
16:01 55.9 °F 30.6 °F 30.10 in NNE 4.2 mph -999.0 mph 38 % 0 in
16:16 55.8 °F 29.2 °F 30.10 in WNW 5.3 mph -999.0 mph 36 % 0 in
16:31 54.1 °F 29.0 °F 30.10 in NNW 6.8 mph -999.0 mph 38 % 0 in
16:46 56.1 °F 30.8 °F 30.10 in NNE 4.7 mph -999.0 mph 38 % 0 in
17:02 58.1 °F 29.9 °F 30.10 in NNW 3.7 mph -999.0 mph 34 % 0 in
17:17 59.9 °F 31.5 °F 30.09 in NNW 4.7 mph -999.0 mph 34 % 0 in
17:32 59.0 °F 30.7 °F 30.10 in NNW 5.3 mph -999.0 mph 34 % 0 in
17:48 54.5 °F 30.0 °F 30.10 in NNW 5.3 mph -999.0 mph 39 % 0 in
18:03 53.4 °F 29.7 °F 30.10 in NNW 4.2 mph -999.0 mph 40 % 0 in
18:18 52.5 °F 31.2 °F 30.11 in NNE 2.2 mph -999.0 mph 44 % 0 in
18:34 51.6 °F 29.8 °F 30.10 in NNE 2.2 mph -999.0 mph 43 % 0 in
18:49 50.5 °F 29.4 °F 30.11 in North 2.2 mph -999.0 mph 44 % 0 in
19:04 49.3 °F 30.4 °F 30.11 in WNW 2.2 mph -999.0 mph 48 % 0 in
19:19 47.8 °F 30.1 °F 30.11 in Calm   -999.0 mph 50 % 0 in
19:35 45.5 °F 29.8 °F 30.11 in SSE 1.7 mph -999.0 mph 54 % 0 in
19:50 44.8 °F 30.9 °F 30.12 in Calm   -999.0 mph 58 % 0 in
20:05 43.7 °F 29.0 °F 30.12 in South 1.7 mph -999.0 mph 56 % 0 in
20:21 42.6 °F 29.7 °F 30.13 in SSE 2.7 mph -999.0 mph 60 % 0 in
20:36 41.9 °F 29.0 °F 30.14 in SSE 1.7 mph -999.0 mph 60 % 0 in
20:51 41.0 °F 29.8 °F 30.14 in SSE 1.7 mph -999.0 mph 64 % 0 in
21:07 39.9 °F 29.1 °F 30.15 in SSE 1.7 mph -999.0 mph 65 % 0 in
21:22 39.4 °F 28.2 °F 30.15 in Calm   -999.0 mph 64 % 0 in
21:37 38.7 °F 28.7 °F 30.15 in South 2.2 mph -999.0 mph 67 % 0 in
21:52 38.1 °F 28.5 °F 30.15 in South 1.7 mph -999.0 mph 68 % 0 in
22:07 37.4 °F 28.5 °F 30.15 in South 1.1 mph -999.0 mph 70 % 0 in
22:23 36.9 °F 28.4 °F 30.15 in SSE 2.2 mph -999.0 mph 71 % 0 in
22:38 36.3 °F 28.1 °F 30.16 in SSE 1.1 mph -999.0 mph 72 % 0 in
22:53 35.6 °F 27.8 °F 30.15 in South 2.2 mph -999.0 mph 73 % 0 in
23:08 35.2 °F 27.7 °F 30.16 in Calm   -999.0 mph 74 % 0 in
23:23 34.9 °F 27.8 °F 30.16 in South 1.1 mph -999.0 mph 75 % 0 in
23:39 34.9 °F 28.4 °F 30.15 in South 1.7 mph -999.0 mph 77 % 0 in
23:54 34.3 °F 28.2 °F 30.16 in Calm   -999.0 mph 78 % 0 in
Big Bear CA Weather
Compliments of Weather Underground - 1.5 mb